Time;durP1;ratioP1;P1;durP2;ratioP2;P2;SDS_P1;SDS_P2;PMS_P1;PMS_P2;Temp;Humidity;BMP_temperature;BMP_pressure;BME280_temperature;BME280_humidity;BME280_pressure;Samples;Min_cycle;Max_cycle;Signal;HPM_P1;HPM_P2
2022/11/03 00:01:10;;;;;;;5.60;2.60;;;;;;;2.67;60.88;99549.94;4868194;29;20090;-91
2022/11/03 00:03:36;;;;;;;4.47;2.77;;;;;;;2.90;60.96;99586.63;4899663;29;20044;-90
2022/11/03 00:06:05;;;;;;;3.95;3.13;;;;;;;2.78;60.92;99583.25;4899240;29;20048;-89
2022/11/03 00:08:37;;;;;;;3.42;2.58;;;;;;;2.71;61.24;99588.84;4926522;29;20055;-89
2022/11/03 00:11:10;;;;;;;3.35;2.20;;;;;;;2.91;60.89;99592.81;4886607;29;20094;-90
2022/11/03 00:13:37;;;;;;;4.60;1.80;;;;;;;2.72;61.25;99590.50;4902292;29;20095;-90
2022/11/03 00:16:04;;;;;;;3.78;2.00;;;;;;;2.54;61.36;99575.44;4917829;29;20039;-88
2022/11/03 00:18:30;;;;;;;2.90;1.90;;;;;;;2.34;61.81;99586.03;4901783;29;20517;-89
2022/11/03 00:20:58;;;;;;;6.10;2.08;;;;;;;2.50;62.15;99598.63;4874103;29;20049;-88
2022/11/03 00:23:26;;;;;;;5.28;2.00;;;;;;;2.54;62.00;99586.25;4915133;29;20094;-89
2022/11/03 00:25:52;;;;;;;4.38;2.08;;;;;;;2.31;62.19;99562.25;4905829;29;20043;-88
2022/11/03 00:28:18;;;;;;;2.63;2.10;;;;;;;2.33;62.57;99582.50;4889280;29;20043;-88
2022/11/03 00:30:44;;;;;;;3.78;2.33;;;;;;;2.34;62.39;99592.22;4883175;29;20529;-88
2022/11/03 00:33:10;;;;;;;5.38;2.13;;;;;;;2.18;62.54;99568.03;4878628;29;20150;-93
2022/11/03 00:35:36;;;;;;;5.43;2.10;;;;;;;2.47;62.00;99599.13;4878580;29;20049;-90
2022/11/03 00:38:02;;;;;;;2.05;1.50;;;;;;;2.51;61.72;99599.44;4863815;29;20083;-91
2022/11/03 00:40:29;;;;;;;2.42;2.00;;;;;;;2.17;62.23;99567.22;4879099;29;20044;-90
2022/11/03 00:42:55;;;;;;;3.22;2.28;;;;;;;2.18;62.05;99557.22;4875798;29;20636;-92
2022/11/03 00:45:21;;;;;;;3.23;2.37;;;;;;;2.26;62.07;99570.28;4866918;29;20041;-89
2022/11/03 00:50:33;;;;;;;5.18;2.38;;;;;;;1.87;62.78;99552.28;4879614;29;20041;-89
2022/11/03 00:52:59;;;;;;;2.97;2.00;;;;;;;2.27;62.67;99601.59;4913532;29;20055;-93
2022/11/03 00:55:25;;;;;;;3.67;2.60;;;;;;;2.33;62.15;99587.09;4897829;29;20533;-92
2022/11/03 00:57:52;;;;;;;2.33;2.08;;;;;;;2.44;62.13;99605.03;4881759;29;20047;-91
2022/11/03 01:00:18;;;;;;;;;;;;;;;2.51;61.80;99616.44;4882437;29;20044;-88
2022/11/03 01:02:44;;;;;;;3.50;2.42;;;;;;;2.45;61.78;99590.47;4897962;29;20045;-91
2022/11/03 01:07:56;;;;;;;2.63;2.13;;;;;;;2.47;61.89;99623.41;4918079;29;20529;-90
2022/11/03 01:10:22;;;;;;;3.45;2.15;;;;;;;2.18;62.42;99605.78;4886381;29;20042;-89
2022/11/03 01:12:48;;;;;;;3.08;2.35;;;;;;;2.13;62.51;99601.16;4917624;29;20043;-91
2022/11/03 01:15:14;;;;;;;2.53;2.00;;;;;;;2.32;62.22;99623.25;4917015;29;20039;-91
2022/11/03 01:17:40;;;;;;;3.90;2.28;;;;;;;2.03;62.57;99592.94;4917754;29;20062;-89
2022/11/03 01:20:07;;;;;;;7.30;2.28;;;;;;;2.09;62.89;99608.13;4936135;29;20171;-89
2022/11/03 01:22:32;;;;;;;3.20;2.57;;;;;;;2.07;62.33;99594.88;4936622;29;20043;-90
2022/11/03 01:24:59;;;;;;;3.00;2.38;;;;;;;1.98;63.03;99601.75;4920678;29;20510;-89
2022/11/03 01:27:25;;;;;;;2.90;2.10;;;;;;;1.90;63.30;99601.38;4920441;29;20043;-89
2022/11/03 01:29:51;;;;;;;2.88;2.00;;;;;;;1.92;63.09;99596.53;4925276;29;20050;-90
2022/11/03 01:32:17;;;;;;;3.20;2.33;;;;;;;2.07;63.18;99599.44;4920618;29;20047;-90
2022/11/03 01:34:43;;;;;;;1.77;1.65;;;;;;;1.96;62.47;99565.34;4920154;29;20050;-91
2022/11/03 01:37:09;;;;;;;4.03;2.50;;;;;;;2.43;62.54;99621.47;4920494;29;20035;-89
2022/11/03 01:39:35;;;;;;;7.40;2.50;;;;;;;2.25;61.90;99590.22;4898942;29;20039;-90
2022/11/03 01:42:02;;;;;;;3.20;2.53;;;;;;;2.21;62.66;99592.59;4914480;29;20078;-90
2022/11/03 01:44:32;;;;;;;2.65;2.40;;;;;;;2.63;61.89;99620.88;4910837;29;20039;-89
2022/11/03 01:47:08;;;;;;;4.07;2.72;;;;;;;2.61;61.56;99631.94;4903678;29;20054;-89
2022/11/03 01:49:53;;;;;;;5.15;2.58;;;;;;;2.48;61.55;99622.34;4923166;29;20050;-89
2022/11/03 01:52:36;;;;;;;3.72;2.80;;;;;;;2.63;61.25;99612.78;4927985;29;20059;-90
2022/11/03 01:55:23;;;;;;;5.60;2.78;;;;;;;2.64;61.60;99600.91;4953367;29;20043;-89
2022/11/03 01:57:54;;;;;;;3.00;2.17;;;;;;;2.80;61.40;99613.50;4907230;29;20402;-91
2022/11/03 02:00:21;;;;;;;4.30;2.55;;;;;;;2.59;61.26;99602.50;4919482;29;20061;-92
2022/11/03 02:02:48;;;;;;;2.80;2.50;;;;;;;2.76;61.49;99610.50;4921461;29;20043;-92
2022/11/03 02:05:17;;;;;;;3.90;2.75;;;;;;;2.30;61.56;99571.41;4905299;29;20138;-92
2022/11/03 02:08:01;;;;;;;3.75;2.92;;;;;;;1.97;62.94;99581.25;4905235;29;20592;-91
2022/11/03 02:10:27;;;;;;;3.75;2.90;;;;;;;2.46;63.20;99616.38;4920119;29;20035;-89
2022/11/03 02:12:53;;;;;;;3.22;2.63;;;;;;;2.38;62.31;99600.63;4906171;29;20496;-91
2022/11/03 02:15:21;;;;;;;6.65;2.45;;;;;;;2.40;62.08;99622.78;4892597;28;20405;-90
2022/11/03 02:17:50;;;;;;;4.10;2.95;;;;;;;2.26;62.21;99610.75;4935041;29;20544;-91
2022/11/03 02:20:24;;;;;;;3.60;2.90;;;;;;;2.41;62.26;99610.09;4931256;29;20070;-90
2022/11/03 02:23:08;;;;;;;2.90;2.60;;;;;;;2.24;62.87;99626.38;4938174;29;20047;-91
2022/11/03 02:25:47;;;;;;;4.93;2.67;;;;;;;2.05;62.91;99590.78;4955144;29;20448;-90
2022/11/03 02:28:17;;;;;;;3.55;2.55;;;;;;;2.05;62.95;99583.53;4956805;28;20106;-91
2022/11/03 02:31:08;;;;;;;3.15;2.67;;;;;;;2.38;62.34;99629.50;4920063;29;20505;-91
2022/11/03 02:34:05;;;;;;;3.78;2.70;;;;;;;2.45;62.34;99612.06;4922298;29;20149;-90
2022/11/03 02:36:55;;;;;;;3.75;2.42;;;;;;;2.55;61.82;99608.66;4939746;28;20043;-90
2022/11/03 02:39:34;;;;;;;3.13;2.35;;;;;;;2.53;61.49;99595.41;4936255;29;20047;-91
2022/11/03 02:42:03;;;;;;;2.70;2.15;;;;;;;2.59;61.34;99607.09;4925441;28;20059;-91
2022/11/03 02:44:32;;;;;;;2.97;2.10;;;;;;;2.52;61.17;99584.88;4912825;29;20055;-90
2022/11/03 02:47:02;;;;;;;3.38;2.10;;;;;;;2.59;61.21;99602.50;4907123;29;20047;-90
2022/11/03 02:49:28;;;;;;;2.88;2.40;;;;;;;2.46;61.54;99602.91;4936738;29;20082;-91
2022/11/03 02:52:00;;;;;;;9.60;2.55;;;;;;;2.39;61.68;99593.38;4888569;29;20052;-90
2022/11/03 02:54:33;;;;;;;3.38;2.30;;;;;;;2.19;62.22;99608.25;4919437;29;20039;-90
2022/11/03 02:57:15;;;;;;;2.78;2.13;;;;;;;2.26;63.27;99619.66;4904160;29;20043;-91
2022/11/03 03:00:11;;;;;;;3.38;2.33;;;;;;;2.38;62.94;99616.00;4916945;29;20441;-89
2022/11/03 03:02:51;;;;;;;3.73;2.57;;;;;;;2.25;63.08;99607.25;4846032;29;20049;-91
2022/11/03 03:05:19;;;;;;;4.43;2.50;;;;;;;2.43;62.45;99589.91;4859483;29;20529;-91
2022/11/03 03:07:50;;;;;;;3.20;2.58;;;;;;;2.44;61.26;99577.22;4859614;29;20826;-91
2022/11/03 03:10:25;;;;;;;17.27;4.63;;;;;;;2.71;61.14;99596.94;4857413;29;20299;-91
2022/11/03 03:12:56;;;;;;;5.82;2.50;;;;;;;2.80;60.81;99595.44;4866277;29;20060;-90
2022/11/03 03:15:51;;;;;;;3.08;2.53;;;;;;;2.77;61.00;99624.81;4850227;29;20496;-91
2022/11/03 03:18:28;;;;;;;6.00;2.58;;;;;;;2.78;60.78;99612.94;4841120;29;20046;-91
2022/11/03 03:21:05;;;;;;;5.43;2.70;;;;;;;2.65;61.10;99595.28;4857396;29;20080;-90
2022/11/03 03:23:35;;;;;;;3.85;2.30;;;;;;;2.91;60.75;99631.44;4835375;29;20034;-91
2022/11/03 03:26:12;;;;;;;4.72;2.25;;;;;;;2.67;60.65;99605.81;4843349;29;20050;-92
2022/11/03 03:28:53;;;;;;;3.75;2.60;;;;;;;2.50;61.34;99611.31;4843813;29;20037;-91
2022/11/03 03:31:21;;;;;;;3.50;2.58;;;;;;;2.53;61.41;99608.91;4859476;29;20041;-91
2022/11/03 03:33:52;;;;;;;4.70;2.10;;;;;;;2.35;61.57;99595.72;4840176;29;20476;-90
2022/11/03 03:36:20;;;;;;;4.30;2.38;;;;;;;2.51;61.41;99634.50;4843016;29;20046;-89
2022/11/03 03:38:55;;;;;;;2.38;1.65;;;;;;;2.08;62.21;99623.47;4890393;29;20119;-91
2022/11/03 03:41:24;;;;;;;2.28;1.80;;;;;;;2.12;62.48;99610.31;4889833;29;20044;-92
2022/11/03 03:43:56;;;;;;;6.90;2.60;;;;;;;2.22;62.63;99609.59;4903097;29;20027;-90
2022/11/03 03:46:25;;;;;;;7.68;3.28;;;;;;;2.44;61.82;99613.13;4912566;29;20425;-90
2022/11/03 03:48:51;;;;;;;6.88;2.65;;;;;;;2.58;61.01;99633.28;4902952;29;20047;-91
2022/11/03 03:51:22;;;;;;;4.50;2.50;;;;;;;2.30;61.40;99609.19;4909545;29;20051;-90
2022/11/03 03:53:52;;;;;;;10.13;2.92;;;;;;;2.30;61.74;99603.78;4919171;29;20119;-92
2022/11/03 03:56:24;;;;;;;4.20;2.70;;;;;;;2.22;62.20;99591.56;4906309;29;20071;-93
2022/11/03 03:58:50;;;;;;;4.85;2.50;;;;;;;2.48;61.75;99626.91;4920178;29;20458;-92
2022/11/03 04:01:16;;;;;;;9.55;3.03;;;;;;;2.48;61.59;99626.91;4907257;28;20053;-92
2022/11/03 04:03:42;;;;;;;4.28;2.60;;;;;;;2.35;61.69;99607.38;4902942;29;20118;-92
2022/11/03 04:06:08;;;;;;;5.82;2.40;;;;;;;2.34;60.94;99621.09;4916407;29;20047;-92
2022/11/03 04:08:34;;;;;;;3.42;2.13;;;;;;;2.22;60.80;99612.28;4921693;29;20098;-91
2022/11/03 04:22:16;;;;;;;4.95;2.22;;;;;;;1.91;62.65;99643.44;4938450;28;20499;-90
2022/11/03 04:24:51;;;;;;;7.47;2.20;;;;;;;1.62;63.36;99593.19;4941342;28;20097;-91
2022/11/03 04:27:17;;;;;;;3.60;2.10;;;;;;;2.10;62.06;99647.50;4918251;29;20078;-92
2022/11/03 04:29:43;;;;;;;2.83;1.90;;;;;;;1.84;62.50;99633.66;4906164;29;20046;-91
2022/11/03 04:32:15;;;;;;;4.97;2.63;;;;;;;2.04;62.32;99648.47;4894393;29;20044;-91
2022/11/03 04:34:41;;;;;;;3.67;2.10;;;;;;;1.96;62.10;99630.03;4920970;28;20117;-91
2022/11/03 04:37:14;;;;;;;2.53;2.00;;;;;;;1.93;62.54;99636.75;4902927;29;20047;-90
2022/11/03 04:39:41;;;;;;;3.28;1.90;;;;;;;2.04;62.40;99654.69;4918411;29;20047;-91
2022/11/03 04:42:20;;;;;;;3.95;1.98;;;;;;;1.90;62.74;99634.53;4903159;29;20062;-90
2022/11/03 04:44:49;;;;;;;2.80;1.90;;;;;;;1.93;61.97;99620.56;4949751;28;20043;-90
2022/11/03 04:47:18;;;;;;;2.65;2.10;;;;;;;2.23;61.73;99655.22;4914570;29;20054;-90
2022/11/03 04:49:47;;;;;;;3.30;2.53;;;;;;;2.22;62.04;99650.91;4933102;29;20521;-90
2022/11/03 04:52:21;;;;;;;5.22;2.08;;;;;;;2.19;61.85;99650.59;4901635;29;20056;-88
2022/11/03 04:54:53;;;;;;;3.85;2.20;;;;;;;1.84;61.88;99600.50;4928640;29;20101;-89
2022/11/03 04:57:21;;;;;;;4.13;2.20;;;;;;;2.10;61.57;99610.56;4922216;29;20048;-89
2022/11/03 04:59:50;;;;;;;7.45;2.25;;;;;;;2.09;61.31;99608.94;4893109;29;20177;-91
2022/11/03 05:02:19;;;;;;;6.18;2.55;;;;;;;2.37;61.21;99636.78;4867108;29;20107;-93
2022/11/03 05:04:46;;;;;;;9.95;3.38;;;;;;;2.41;61.29;99637.91;4903883;29;20032;-92
2022/11/03 05:07:22;;;;;;;12.17;2.80;;;;;;;2.54;60.62;99656.41;4913423;29;20427;-92
2022/11/03 05:09:49;;;;;;;3.33;2.20;;;;;;;2.15;60.97;99598.19;4898016;29;20075;-91
2022/11/03 05:12:16;;;;;;;3.60;2.42;;;;;;;2.17;61.56;99629.25;4898363;29;20055;-91
2022/11/03 05:14:42;;;;;;;3.80;1.92;;;;;;;2.04;61.24;99641.19;4909464;29;20056;-91
2022/11/03 05:17:22;;;;;;;4.70;2.10;;;;;;;1.73;61.77;99617.59;4885977;29;20047;-94
2022/11/03 05:20:12;;;;;;;6.13;2.10;;;;;;;1.92;61.63;99643.22;4900226;29;20035;-91
2022/11/03 05:22:38;;;;;;;3.13;2.03;;;;;;;1.56;62.16;99633.78;4905304;29;20146;-91
2022/11/03 05:25:29;;;;;;;3.78;2.10;;;;;;;1.55;63.38;99667.97;4936754;29;20127;-90
2022/11/03 05:27:55;;;;;;;3.80;2.00;;;;;;;1.70;63.00;99672.78;4917535;29;20040;-89
2022/11/03 05:30:21;;;;;;;9.82;2.08;;;;;;;1.76;63.23;99660.22;4886028;29;20039;-91
2022/11/03 05:32:47;;;;;;;6.25;2.30;;;;;;;1.44;62.77;99633.84;4902718;29;20203;-91
2022/11/03 05:35:22;;;;;;;13.77;2.50;;;;;;;1.54;63.26;99646.66;4906613;29;20051;-91
2022/11/03 05:37:49;;;;;;;3.08;2.00;;;;;;;1.52;62.83;99648.78;4939648;29;20134;-90
2022/11/03 05:40:22;;;;;;;2.95;2.00;;;;;;;1.89;62.78;99665.28;4925573;29;20051;-90
2022/11/03 05:42:56;;;;;;;8.60;3.25;;;;;;;1.85;61.89;99635.31;4909218;29;20477;-92
2022/11/03 05:45:29;;;;;;;19.55;3.47;;;;;;;2.16;61.84;99670.78;4909020;29;20039;-91
2022/11/03 05:47:57;;;;;;;3.90;2.67;;;;;;;1.82;61.93;99611.53;4936223;29;20043;-90
2022/11/03 05:50:29;;;;;;;8.18;3.08;;;;;;;1.96;61.60;99611.97;4939830;29;20039;-90
2022/11/03 05:53:28;;;;;;;6.50;3.05;;;;;;;2.42;61.27;99671.94;4925150;29;20043;-92
2022/11/03 05:55:58;;;;;;;21.08;3.25;;;;;;;2.47;61.25;99677.38;4940318;29;20067;-92
2022/11/03 05:58:30;;;;;;;9.63;3.53;;;;;;;2.53;60.65;99676.38;4935577;28;20248;-90
2022/11/03 06:00:57;;;;;;;5.63;2.83;;;;;;;2.41;60.61;99670.28;4957651;28;20073;-86
2022/11/03 06:03:27;;;;;;;27.50;4.35;;;;;;;2.35;61.04;99673.97;4957476;28;20049;-87
2022/11/03 06:05:56;;;;;;;9.07;3.28;;;;;;;2.29;61.11;99664.22;4941280;29;20039;-87
2022/11/03 06:08:33;;;;;;;11.98;3.45;;;;;;;2.26;61.02;99664.69;4938273;29;20039;-87
2022/11/03 06:11:02;;;;;;;5.57;3.00;;;;;;;2.22;61.50;99677.03;4938355;29;20049;-86
2022/11/03 06:13:37;;;;;;;13.35;3.85;;;;;;;2.11;62.45;99651.81;4938356;29;20488;-88
2022/11/03 06:16:23;;;;;;;15.25;4.15;;;;;;;2.29;60.83;99661.50;4937954;29;20035;-87
2022/11/03 06:18:50;;;;;;;14.57;4.00;;;;;;;2.33;61.03;99679.63;4938254;29;20035;-89
2022/11/03 06:21:21;;;;;;;9.20;3.78;;;;;;;2.04;61.35;99657.38;4937732;29;20050;-89
2022/11/03 06:23:48;;;;;;;12.95;3.90;;;;;;;2.28;61.77;99687.63;4954967;29;20559;-91
2022/11/03 06:26:24;;;;;;;12.30;3.30;;;;;;;1.86;62.50;99665.75;4924938;29;20420;-90
2022/11/03 06:28:50;;;;;;;13.18;3.60;;;;;;;2.20;62.05;99685.38;4921763;29;20065;-88
2022/11/03 06:31:29;;;;;;;11.55;3.78;;;;;;;2.20;61.21;99660.31;4953877;29;20055;-89
2022/11/03 06:33:57;;;;;;;12.48;3.63;;;;;;;2.02;61.14;99626.31;4937338;29;20509;-91
2022/11/03 06:36:34;;;;;;;16.23;3.90;;;;;;;2.62;60.75;99684.84;4925098;29;20036;-90
2022/11/03 06:39:22;;;;;;;8.15;4.18;;;;;;;2.34;61.08;99658.84;4908120;29;20138;-91
2022/11/03 06:41:48;;;;;;;9.20;4.00;;;;;;;2.25;60.82;99671.13;4921792;29;20039;-88
2022/11/03 06:44:37;;;;;;;10.95;4.07;;;;;;;2.23;61.27;99673.28;4905969;29;20043;-90
2022/11/03 06:47:22;;;;;;;10.05;4.45;;;;;;;2.16;61.64;99681.56;4930882;28;20508;-90
2022/11/03 06:49:51;;;;;;;10.48;3.35;;;;;;;1.94;61.41;99648.34;4958720;28;20130;-91
2022/11/03 06:52:34;;;;;;;7.35;3.25;;;;;;;2.16;61.29;99676.16;4921093;29;20146;-91
2022/11/03 06:55:06;;;;;;;15.73;3.88;;;;;;;2.22;61.07;99677.88;4937121;29;20525;-91
2022/11/03 06:57:36;;;;;;;20.35;4.03;;;;;;;2.04;61.35;99657.38;4953770;28;20051;-88
2022/11/03 07:00:24;;;;;;;10.43;3.05;;;;;;;1.97;61.78;99672.94;4954995;29;20039;-89
2022/11/03 07:02:50;;;;;;;12.93;4.60;;;;;;;2.10;62.20;99687.94;4922511;29;20050;-89
2022/11/03 07:05:27;;;;;;;21.13;3.83;;;;;;;1.99;62.09;99687.00;4953899;29;20039;-90
2022/11/03 07:07:57;;;;;;;19.83;3.65;;;;;;;1.84;61.95;99659.78;4961336;28;20038;-89
2022/11/03 07:10:32;;;;;;;14.35;3.92;;;;;;;1.78;62.37;99641.91;4937114;29;20058;-90
2022/11/03 07:13:13;;;;;;;19.52;4.00;;;;;;;2.14;62.14;99677.47;4934661;29;20137;-90
2022/11/03 07:15:41;;;;;;;9.75;3.83;;;;;;;2.28;61.31;99665.25;4915002;29;20031;-90
2022/11/03 07:18:34;;;;;;;12.13;4.00;;;;;;;2.30;62.04;99685.53;4923967;28;20133;-89
2022/11/03 07:21:20;;;;;;;11.85;4.18;;;;;;;2.10;61.71;99674.47;4934330;29;20102;-88
2022/11/03 07:23:46;;;;;;;7.45;3.42;;;;;;;2.02;61.48;99651.44;4937985;29;20047;-89
2022/11/03 07:26:12;;;;;;;12.70;3.47;;;;;;;1.96;61.16;99663.22;4913183;29;20036;-89
2022/11/03 07:28:38;;;;;;;11.20;4.03;;;;;;;2.18;62.03;99678.59;4947496;29;20049;-87
2022/11/03 07:31:24;;;;;;;23.40;3.67;;;;;;;2.16;61.23;99703.13;4953944;29;20102;-90
2022/11/03 07:33:57;;;;;;;18.23;4.57;;;;;;;1.78;62.64;99685.03;4956035;29;20133;-93
2022/11/03 07:36:27;;;;;;;28.38;6.15;;;;;;;1.65;62.12;99668.13;4938890;29;20539;-91
2022/11/03 07:38:56;;;;;;;13.63;4.97;;;;;;;1.97;62.27;99696.38;4951642;28;20090;-88
2022/11/03 07:41:27;;;;;;;14.50;6.47;;;;;;;1.84;62.70;99662.47;4922468;29;20067;-89
2022/11/03 07:43:58;;;;;;;15.25;5.65;;;;;;;1.87;62.46;99681.66;4957212;28;20122;-92
2022/11/03 07:46:26;;;;;;;13.20;5.80;;;;;;;2.03;61.66;99680.03;4955130;28;20114;-92
2022/11/03 07:48:56;;;;;;;26.67;5.47;;;;;;;2.10;62.45;99683.34;4921762;29;20069;-91
2022/11/03 07:51:29;;;;;;;19.25;5.22;;;;;;;2.24;61.55;99680.31;4924783;29;20390;-93
2022/11/03 07:54:02;;;;;;;17.05;4.78;;;;;;;2.30;61.14;99701.72;4956516;28;20134;-87
2022/11/03 07:56:34;;;;;;;9.82;4.75;;;;;;;2.00;61.27;99675.13;4952893;29;20062;-91
2022/11/03 07:59:10;;;;;;;15.65;4.30;;;;;;;2.06;62.00;99684.13;4935189;29;20062;-89
2022/11/03 08:01:41;;;;;;;8.10;4.13;;;;;;;2.17;61.28;99703.94;4954165;29;20057;-92
2022/11/03 08:04:33;;;;;;;18.17;6.05;;;;;;;1.81;62.22;99706.91;4933499;29;20054;-89
2022/11/03 08:06:59;;;;;;;8.43;5.40;;;;;;;1.77;62.32;99681.53;4926236;29;20505;-92
2022/11/03 08:09:26;;;;;;;20.95;5.90;;;;;;;1.85;62.18;99673.03;4952777;29;20043;-89
2022/11/03 08:11:52;;;;;;;27.50;6.63;;;;;;;1.93;61.50;99681.75;4904733;29;20515;-91
2022/11/03 08:14:19;;;;;;;9.48;5.55;;;;;;;2.05;61.71;99704.03;4905793;29;20792;-93
2022/11/03 08:16:45;;;;;;;21.35;6.07;;;;;;;2.15;61.64;99704.19;4937579;29;20035;-93
2022/11/03 08:19:14;;;;;;;60.10;8.60;;;;;;;2.12;61.73;99691.22;4905256;29;20536;-90
2022/11/03 08:21:40;;;;;;;23.70;5.72;;;;;;;2.02;61.84;99673.00;4929501;29;20050;-89
2022/11/03 08:24:06;;;;;;;23.55;6.28;;;;;;;2.02;61.59;99682.97;4937100;29;20456;-89
2022/11/03 08:26:32;;;;;;;23.00;7.00;;;;;;;1.98;62.21;99674.53;4936978;29;20039;-89
2022/11/03 08:28:58;;;;;;;29.98;6.78;;;;;;;1.97;62.20;99659.44;4904860;29;20054;-90
2022/11/03 08:31:24;;;;;;;14.15;6.82;;;;;;;2.17;61.69;99636.53;4936125;29;20516;-91
2022/11/03 08:33:50;;;;;;;33.53;7.88;;;;;;;2.34;61.08;99653.47;4920104;29;20130;-91
2022/11/03 08:36:16;;;;;;;20.20;8.00;;;;;;;2.14;60.53;99639.72;4905644;29;20089;-91
2022/11/03 08:38:42;;;;;;;10.30;7.00;;;;;;;2.28;61.15;99681.44;4918137;29;20039;-88
2022/11/03 08:41:10;;;;;;;15.57;7.03;;;;;;;2.00;61.06;99664.34;4956877;28;20066;-90
2022/11/03 08:43:36;;;;;;;21.17;6.65;;;;;;;2.03;61.24;99669.25;4936918;29;20039;-91
2022/11/03 08:46:02;;;;;;;16.00;6.47;;;;;;;2.01;61.24;99649.78;4937480;29;20412;-91
2022/11/03 08:48:29;;;;;;;18.75;7.13;;;;;;;2.03;61.56;99647.66;4948259;29;20054;-89
2022/11/03 08:50:55;;;;;;;27.47;7.37;;;;;;;2.21;61.85;99688.91;4951106;29;20500;-88
2022/11/03 08:53:26;;;;;;;30.98;7.60;;;;;;;2.36;62.10;99689.13;4920434;29;20039;-92
2022/11/03 08:55:53;;;;;;;28.42;8.18;;;;;;;2.30;61.10;99649.63;4905129;29;20054;-88
2022/11/03 08:58:20;;;;;;;18.92;7.78;;;;;;;2.16;61.25;99637.59;4920000;29;20121;-90
2022/11/03 09:00:47;;;;;;;17.90;7.35;;;;;;;2.25;60.80;99665.75;4940936;29;20058;-89
2022/11/03 09:03:13;;;;;;;15.02;6.47;;;;;;;2.28;61.29;99635.56;4925913;28;20039;-88
2022/11/03 09:05:40;;;;;;;27.42;7.63;;;;;;;2.72;61.35;99686.88;4968284;28;20085;-93
2022/11/03 09:08:39;;;;;;;13.90;5.82;;;;;;;2.17;59.72;99604.16;4961302;28;20428;-91
2022/11/03 09:11:16;;;;;;;14.57;5.93;;;;;;;2.66;59.71;99685.16;4936675;28;20548;-89
2022/11/03 09:13:42;;;;;;;9.57;4.75;;;;;;;2.40;60.19;99663.25;4911130;29;20513;-87
2022/11/03 09:16:09;;;;;;;16.65;5.78;;;;;;;2.43;60.44;99678.94;4941170;29;20130;-87
2022/11/03 09:18:35;;;;;;;14.65;6.10;;;;;;;2.15;60.81;99641.34;4958079;29;20050;-90
2022/11/03 09:21:01;;;;;;;15.40;6.60;;;;;;;2.41;60.82;99659.47;4957708;28;20039;-91
2022/11/03 09:23:27;;;;;;;26.90;6.88;;;;;;;2.44;60.32;99685.16;4941539;29;20055;-90
2022/11/03 09:25:53;;;;;;;30.90;7.55;;;;;;;2.43;60.54;99695.13;4940307;29;20453;-90
2022/11/03 09:28:19;;;;;;;26.67;8.10;;;;;;;2.53;60.44;99689.06;4936577;29;20058;-92
2022/11/03 09:30:47;;;;;;;23.52;8.05;;;;;;;2.30;60.44;99674.72;4906629;29;20052;-91
2022/11/03 09:33:13;;;;;;;10.77;5.80;;;;;;;1.99;60.68;99641.16;4925450;29;20547;-88
2022/11/03 09:35:39;;;;;;;23.20;7.30;;;;;;;1.85;61.20;99613.72;4905724;29;20044;-89
2022/11/03 09:38:06;;;;;;;13.88;5.82;;;;;;;2.16;60.78;99654.59;4927190;29;20047;-91
2022/11/03 09:40:34;;;;;;;16.25;6.63;;;;;;;2.14;60.84;99642.41;4916596;29;20062;-91
2022/11/03 09:43:02;;;;;;;20.33;6.78;;;;;;;2.20;61.25;99630.63;4910745;29;20078;-93
2022/11/03 09:45:28;;;;;;;10.43;6.30;;;;;;;1.96;60.26;99613.88;4911034;29;20441;-93
2022/11/03 09:47:55;;;;;;;15.10;7.18;;;;;;;1.81;60.98;99612.56;4907995;29;20075;-92
2022/11/03 09:50:21;;;;;;;16.95;6.55;;;;;;;2.04;61.01;99635.81;4922108;29;20044;-92
2022/11/03 09:52:50;;;;;;;17.17;8.02;;;;;;;1.95;60.92;99615.72;4938056;29;20055;-90
2022/11/03 09:55:20;;;;;;;10.85;6.32;;;;;;;2.23;60.55;99619.34;4903904;29;20071;-91
2022/11/03 09:57:47;;;;;;;21.40;7.72;;;;;;;2.50;60.41;99631.00;4888423;29;20040;-91
2022/11/03 10:00:22;;;;;;;18.90;8.23;;;;;;;2.80;59.97;99687.22;4919665;29;20051;-91
2022/11/03 10:02:50;;;;;;;26.17;7.80;;;;;;;2.43;60.04;99595.31;4906847;29;20505;-93
2022/11/03 10:05:27;;;;;;;25.60;7.53;;;;;;;2.85;59.69;99655.94;4914540;29;20058;-92
2022/11/03 10:08:06;;;;;;;;;;;;;;;2.92;59.50;99679.00;4910055;29;20445;-89
2022/11/03 10:10:34;;;;;;;14.00;7.72;;;;;;;2.79;59.61;99630.78;4925613;29;19965;-93
2022/11/03 10:13:01;;;;;;;9.52;7.00;;;;;;;3.15;58.73;99652.75;4912725;29;20062;-91
2022/11/03 10:15:31;;;;;;;18.35;8.02;;;;;;;3.02;58.55;99633.19;4935513;29;20070;-92
2022/11/03 10:18:01;;;;;;;16.58;7.97;;;;;;;3.15;58.69;99683.28;4898173;29;20046;-93
2022/11/03 10:20:28;;;;;;;22.55;9.40;;;;;;;2.94;59.15;99646.31;4909873;29;20043;-91
2022/11/03 10:22:59;;;;;;;24.58;8.63;;;;;;;3.05;59.98;99677.78;4912271;29;20070;-93
2022/11/03 10:25:39;;;;;;;25.88;8.50;;;;;;;2.82;59.04;99673.47;4925779;29;20075;-91
2022/11/03 10:28:30;;;;;;;25.17;8.95;;;;;;;2.72;59.99;99684.16;4925388;29;20051;-91
2022/11/03 10:31:17;;;;;;;10.80;6.78;;;;;;;2.40;60.45;99655.16;4920884;29;20062;-92
2022/11/03 10:33:54;;;;;;;16.63;8.70;;;;;;;2.48;60.55;99652.00;4945056;29;20537;-91
2022/11/03 10:36:24;;;;;;;21.50;8.45;;;;;;;2.23;61.03;99603.16;4942959;29;20043;-93
2022/11/03 10:38:51;;;;;;;18.40;8.82;;;;;;;2.83;61.01;99680.50;4926882;29;20253;-91
2022/11/03 10:41:20;;;;;;;23.55;8.95;;;;;;;2.74;59.81;99655.00;4944485;28;20047;-91
2022/11/03 10:44:07;;;;;;;13.85;8.95;;;;;;;2.51;60.47;99680.38;4959371;28;20125;-91
2022/11/03 10:46:33;;;;;;;16.35;7.93;;;;;;;2.24;60.64;99629.06;4947213;28;20038;-89
2022/11/03 10:49:30;;;;;;;19.97;8.87;;;;;;;2.71;61.08;99672.53;4929290;29;20064;-94
2022/11/03 10:52:22;;;;;;;15.57;7.70;;;;;;;2.55;60.54;99670.72;4939901;29;20051;-94
2022/11/03 10:54:51;;;;;;;24.83;10.18;;;;;;;2.13;60.92;99611.13;4923641;29;20043;-89
2022/11/03 10:57:18;;;;;;;22.13;10.15;;;;;;;2.29;61.64;99653.41;4915937;29;20054;-92
2022/11/03 10:59:47;;;;;;;17.42;9.60;;;;;;;2.13;60.96;99630.00;4916405;29;20044;-91
2022/11/03 11:02:41;;;;;;;23.88;10.27;;;;;;;2.08;62.48;99633.44;4898702;29;20063;-92
2022/11/03 11:05:19;;;;;;;28.90;10.90;;;;;;;2.28;61.71;99619.38;4863672;29;20049;-91
2022/11/03 11:07:51;;;;;;;27.90;10.13;;;;;;;1.89;61.63;99608.66;4868830;29;20040;-90
2022/11/03 11:10:30;;;;;;;21.20;9.80;;;;;;;2.33;61.03;99670.72;4862664;29;20557;-90
2022/11/03 11:13:12;;;;;;;22.95;10.43;;;;;;;2.48;61.69;99681.69;4895452;29;20136;-92
2022/11/03 11:15:51;;;;;;;13.88;9.25;;;;;;;2.19;61.60;99658.69;4887128;29;20045;-91
2022/11/03 11:18:29;;;;;;;24.15;10.43;;;;;;;2.33;62.35;99682.31;4898482;29;20044;-91
2022/11/03 11:20:56;;;;;;;24.80;11.23;;;;;;;2.25;61.78;99649.56;4846873;29;20050;-92
2022/11/03 11:23:26;;;;;;;;;;;;;;;2.38;61.71;99686.16;4883517;29;20067;-93
2022/11/03 11:26:10;;;;;;;27.08;10.27;;;;;;;2.37;61.64;99677.25;4918670;29;19938;-94
2022/11/03 11:28:38;;;;;;;27.95;9.98;;;;;;;2.29;64.44;99648.03;4912740;29;20044;-87
2022/11/03 11:31:28;;;;;;;19.92;10.00;;;;;;;2.61;61.24;99668.91;4891367;29;20089;-90
2022/11/03 11:34:16;;;;;;;16.20;9.95;;;;;;;2.59;60.91;99678.06;4869960;29;20549;-94
2022/11/03 11:36:44;;;;;;;23.30;9.77;;;;;;;2.15;62.16;99623.28;4934129;29;20621;-91
2022/11/03 11:39:32;;;;;;;28.83;10.32;;;;;;;2.32;61.81;99632.16;4946882;28;20044;-92
2022/11/03 11:42:16;;;;;;;19.20;9.57;;;;;;;2.37;61.94;99657.56;4919240;29;20049;-92
2022/11/03 11:44:42;;;;;;;29.98;9.70;;;;;;;2.62;61.50;99670.56;4902076;29;20059;-90
2022/11/03 11:47:28;;;;;;;27.80;9.70;;;;;;;2.66;60.74;99669.78;4915296;29;20556;-91
2022/11/03 11:50:18;;;;;;;26.08;9.65;;;;;;;2.17;61.76;99641.91;4924827;29;20055;-92
2022/11/03 11:52:57;;;;;;;24.92;9.75;;;;;;;2.49;61.80;99679.84;4912867;29;20101;-90
2022/11/03 11:55:51;;;;;;;16.77;9.02;;;;;;;2.22;61.61;99612.28;4921602;29;20101;-90
2022/11/03 11:58:20;;;;;;;21.30;9.70;;;;;;;2.57;60.99;99680.19;4930987;29;20417;-92
2022/11/03 12:01:01;;;;;;;26.35;11.07;;;;;;;2.48;61.48;99654.72;4923542;29;20421;-93
2022/11/03 12:03:44;;;;;;;15.23;9.20;;;;;;;2.54;60.97;99655.59;4938883;29;20071;-93
2022/11/03 12:06:13;;;;;;;18.85;9.27;;;;;;;2.41;61.50;99683.75;4953961;29;20054;-94
2022/11/03 12:08:40;;;;;;;26.00;10.45;;;;;;;2.34;62.16;99686.66;4930865;28;20532;-90
2022/11/03 12:11:10;;;;;;;21.33;9.77;;;;;;;2.24;62.05;99639.84;4922806;29;20105;-92
2022/11/03 12:13:46;;;;;;;19.90;9.48;;;;;;;2.46;64.76;99637.97;4906821;28;20044;-91
2022/11/03 12:16:41;;;;;;;16.63;8.55;;;;;;;2.33;60.87;99630.25;4922348;29;20035;-94
2022/11/03 12:24:30;;;;;;;15.95;8.57;;;;;;;1.98;63.14;99685.34;4832501;29;20049;-94